This is the latest recevied weather packets stored in our database for station/object HS5GDX-4. If no packets are shown the sender has not sent any weather packets the latest 10 day(s).
| Time | Temp. | Humidity | Pressure | Rain* | Wind** | Luminosity | Snow |
|---|---|---|---|---|---|---|---|
| 1778073099 | 34.44° C | 49% | 964 hPa | - | - | 0 W/m² | - |
| 1778071244 | 34.44° C | 48% | 964 hPa | - | - | 0 W/m² | - |
| 1778067530 | 36.11° C | 47% | 963 hPa | - | - | 0 W/m² | - |
| 1778063815 | 37.22° C | 44% | 962 hPa | - | - | 0 W/m² | - |
| 1778061957 | 37.22° C | 43% | 962 hPa | - | - | 0 W/m² | - |
| 1778061029 | 37.22° C | 43% | 962 hPa | - | - | 0 W/m² | - |
| 1778059172 | 36.67° C | 45% | 962 hPa | - | - | 0 W/m² | - |
| 1778058244 | 36.11° C | 47% | 962 hPa | - | - | 0 W/m² | - |
| 1778056387 | 36.11° C | 45% | 963 hPa | - | - | 0 W/m² | - |
| 1778055459 | 35° C | 48% | 963 hPa | - | - | 0 W/m² | - |
| 1778053537 | 37.22° C | 43% | 963 hPa | - | - | 0 W/m² | - |
| 1778052608 | 38.33° C | 36% | 963 hPa | - | - | 0 W/m² | - |
| 1778051679 | 38.33° C | 33% | 964 hPa | - | - | 0 W/m² | - |
| 1778050750 | 39.44° C | 31% | 964 hPa | - | - | 0 W/m² | - |
| 1778049821 | 39.44° C | 31% | 964 hPa | - | - | 0 W/m² | - |
| 1778048892 | 38.33° C | 33% | 965 hPa | - | - | 0 W/m² | - |
| 1778047963 | 38.89° C | 32% | 965 hPa | - | - | 0 W/m² | - |
| 1778047035 | 38.89° C | 34% | 966 hPa | - | - | 0 W/m² | - |
| 1778046107 | 38.33° C | 34% | 966 hPa | - | - | 0 W/m² | - |
| 1778045179 | 37.22° C | 37% | 966 hPa | - | - | 0 W/m² | - |
| 1778044251 | 37.78° C | 35% | 966 hPa | - | - | 0 W/m² | - |
| 1778043322 | 37.22° C | 37% | 967 hPa | - | - | 0 W/m² | - |
| 1778042392 | 37.22° C | 37% | 967 hPa | - | - | 0 W/m² | - |
| 1778041463 | 37.22° C | 37% | 967 hPa | - | - | 0 W/m² | - |
| 1778040534 | 36.11° C | 39% | 967 hPa | - | - | 0 W/m² | - |
* Rain since midnight (hover to see other rain measurements)
** Current wind speed in m/s (hover to see current wind gust speed)